createdAt,value
2022-08-26T00:00:55.875Z,75.91
2022-08-26T00:03:25.529Z,75.68
2022-08-26T00:05:54.577Z,75.43
2022-08-26T00:08:41.712Z,75.42
2022-08-26T00:11:12.682Z,75.21
2022-08-26T00:13:49.586Z,75.96
2022-08-26T00:16:19.091Z,75.53
2022-08-26T00:18:51.926Z,75.40
2022-08-26T00:21:21.409Z,75.11
2022-08-26T00:23:50.672Z,73.93
2022-08-26T00:26:22.675Z,73.50
2022-08-26T00:28:57.730Z,74.17
2022-08-26T00:31:28.672Z,73.32
2022-08-26T00:34:00.580Z,74.90
2022-08-26T00:36:30.133Z,75.68
2022-08-26T00:38:59.363Z,76.28
2022-08-26T00:41:28.842Z,75.89
2022-08-26T00:43:58.904Z,75.25
2022-08-26T00:46:37.554Z,75.22
2022-08-26T00:49:22.807Z,75.77
2022-08-26T00:51:58.917Z,75.23
2022-08-26T00:54:35.498Z,74.96
2022-08-26T00:57:16.291Z,74.63
2022-08-26T00:59:51.578Z,75.17
2022-08-26T01:02:24.466Z,75.37
2022-08-26T01:04:58.149Z,75.85
2022-08-26T01:07:31.330Z,76.27
2022-08-26T01:10:03.857Z,76.58
2022-08-26T01:12:41.229Z,79.44
2022-08-26T01:15:19.643Z,80.98
2022-08-26T01:17:50.255Z,81.81
2022-08-26T01:21:07.854Z,82.06
2022-08-26T01:23:45.212Z,81.42
2022-08-26T01:26:22.125Z,81.00
2022-08-26T01:28:56.784Z,81.34
2022-08-26T01:31:31.335Z,82.01
2022-08-26T01:34:12.212Z,82.87
2022-08-26T01:36:42.494Z,82.72
2022-08-26T01:39:17.963Z,82.50
2022-08-26T01:41:53.870Z,82.03
2022-08-26T01:44:30.771Z,81.93
2022-08-26T01:47:06.760Z,82.28
2022-08-26T01:49:38.690Z,83.31
2022-08-26T01:52:10.781Z,84.15
2022-08-26T01:54:42.951Z,83.94
2022-08-26T01:57:18.305Z,84.16
2022-08-26T01:59:50.638Z,83.80
2022-08-26T02:02:24.591Z,83.17
2022-08-26T02:05:04.649Z,83.17
2022-08-26T02:07:45.184Z,82.74
2022-08-26T02:10:15.810Z,82.45
2022-08-26T02:12:45.834Z,81.52
2022-08-26T02:15:15.455Z,80.72
2022-08-26T02:17:48.186Z,81.29
2022-08-26T02:20:23.324Z,80.12
2022-08-26T02:22:52.899Z,80.70
2022-08-26T02:25:43.501Z,80.29
2022-08-26T02:28:14.450Z,80.34
2022-08-26T02:30:45.863Z,80.18
2022-08-26T02:33:15.165Z,79.72
2022-08-26T02:35:46.275Z,79.55
2022-08-26T02:38:15.863Z,79.04
2022-08-26T02:40:45.073Z,79.56
2022-08-26T02:43:14.429Z,78.49
2022-08-26T02:45:48.904Z,79.17
2022-08-26T02:48:21.595Z,79.70
2022-08-26T02:50:51.513Z,81.02
2022-08-26T02:53:25.193Z,81.79
2022-08-26T02:55:54.806Z,82.37
2022-08-26T02:58:25.447Z,82.75
2022-08-26T03:00:55.653Z,82.56
2022-08-26T03:03:25.426Z,82.63
2022-08-26T03:05:55.054Z,81.93
2022-08-26T03:08:24.288Z,81.68
2022-08-26T03:10:54.888Z,82.53
2022-08-26T03:13:24.049Z,81.86
2022-08-26T03:15:53.209Z,80.83
2022-08-26T03:18:22.723Z,80.50
2022-08-26T03:20:53.357Z,80.33
2022-08-26T03:23:25.756Z,80.52
2022-08-26T03:25:55.279Z,80.82
2022-08-26T03:28:27.160Z,80.99
2022-08-26T03:30:58.689Z,80.79
2022-08-26T03:33:28.708Z,80.61
2022-08-26T03:35:58.447Z,80.50
2022-08-26T03:38:27.829Z,80.50
2022-08-26T03:40:58.055Z,79.90
2022-08-26T03:43:27.696Z,78.90
2022-08-26T03:45:56.702Z,77.92
2022-08-26T03:48:27.148Z,77.42
2022-08-26T03:50:56.214Z,76.92
2022-08-26T03:53:27.232Z,76.89
2022-08-26T03:55:56.362Z,76.36
2022-08-26T03:58:26.574Z,76.42
2022-08-26T04:00:55.938Z,75.97
2022-08-26T04:03:46.214Z,75.67
2022-08-26T04:06:17.924Z,75.13
2022-08-26T04:08:46.988Z,74.86
2022-08-26T04:11:20.159Z,74.35
2022-08-26T04:13:50.295Z,74.80
2022-08-26T04:16:20.152Z,74.98
2022-08-26T04:18:49.784Z,75.18
2022-08-26T04:21:20.778Z,75.08
2022-08-26T04:23:50.594Z,74.23
2022-08-26T04:26:23.266Z,73.37
2022-08-26T04:28:56.318Z,75.10
2022-08-26T04:31:26.594Z,75.60
2022-08-26T04:34:00.242Z,75.62
2022-08-26T04:36:33.293Z,75.26
2022-08-26T04:39:05.505Z,75.22
2022-08-26T04:41:35.230Z,75.55
2022-08-26T04:44:06.737Z,75.98
2022-08-26T04:46:36.742Z,75.16
2022-08-26T04:49:13.993Z,74.05
2022-08-26T04:51:49.133Z,73.08
2022-08-26T04:54:18.548Z,72.63
2022-08-26T04:56:51.041Z,73.31
2022-08-26T04:59:21.924Z,72.87
2022-08-26T05:02:00.042Z,72.87
2022-08-26T05:04:30.456Z,73.19
2022-08-26T05:07:04.621Z,71.15
2022-08-26T05:09:36.545Z,70.67
2022-08-26T05:12:10.696Z,70.21
2022-08-26T05:14:46.473Z,70.10
2022-08-26T05:17:16.655Z,68.90
2022-08-26T05:19:45.984Z,68.82
2022-08-26T05:22:20.469Z,68.47
2022-08-26T05:24:49.626Z,68.17
2022-08-26T05:27:21.293Z,68.19
2022-08-26T05:29:54.563Z,66.23
2022-08-26T05:32:35.287Z,65.73
2022-08-26T05:35:07.756Z,65.66
2022-08-26T05:37:38.837Z,65.44
2022-08-26T05:40:08.664Z,65.72
2022-08-26T05:42:39.652Z,64.52
2022-08-26T05:45:28.258Z,64.52
2022-08-26T05:47:57.359Z,64.78
2022-08-26T05:50:26.334Z,65.29
2022-08-26T05:52:55.681Z,64.60
2022-08-26T05:55:24.653Z,64.88
2022-08-26T05:57:56.677Z,65.53
2022-08-26T06:00:27.852Z,65.49
2022-08-26T06:02:58.902Z,65.52
2022-08-26T06:05:28.196Z,64.98
2022-08-26T06:08:14.478Z,64.17
2022-08-26T06:10:56.728Z,62.85
2022-08-26T06:13:30.297Z,61.78
2022-08-26T06:16:09.074Z,61.20
2022-08-26T06:18:42.304Z,59.14
2022-08-26T06:21:13.782Z,58.19
2022-08-26T06:24:03.468Z,56.76
2022-08-26T06:26:34.052Z,55.67
2022-08-26T06:29:07.851Z,55.48
2022-08-26T06:31:37.788Z,54.58
2022-08-26T06:34:12.415Z,53.93
2022-08-26T06:36:44.958Z,51.29
2022-08-26T06:39:19.018Z,49.58
2022-08-26T06:41:54.144Z,49.41
2022-08-26T06:44:46.048Z,48.35
2022-08-26T06:47:16.332Z,48.45
2022-08-26T06:49:45.630Z,48.00
2022-08-26T06:52:24.353Z,46.55
2022-08-26T06:54:54.185Z,46.45
2022-08-26T06:57:30.855Z,46.15
2022-08-26T07:00:05.737Z,43.98
2022-08-26T07:02:35.818Z,43.66
2022-08-26T07:05:08.709Z,43.59
2022-08-26T07:07:38.754Z,42.46
2022-08-26T07:10:09.047Z,42.49
2022-08-26T07:12:39.230Z,42.52
2022-08-26T07:15:11.816Z,40.23
2022-08-26T07:17:41.240Z,39.49
2022-08-26T07:20:12.004Z,38.23
2022-08-26T07:22:43.970Z,39.96
2022-08-26T07:25:14.381Z,39.15
2022-08-26T07:27:44.109Z,39.05
2022-08-26T07:30:14.782Z,38.83
2022-08-26T07:32:44.203Z,38.80
2022-08-26T07:35:14.313Z,38.78
2022-08-26T07:37:43.479Z,38.73
2022-08-26T07:40:12.490Z,37.99
2022-08-26T07:42:41.517Z,37.44
2022-08-26T07:45:11.521Z,37.66
2022-08-26T07:47:40.798Z,37.89
2022-08-26T07:50:10.334Z,37.83
2022-08-26T07:52:43.599Z,37.49
2022-08-26T07:55:12.713Z,36.49
2022-08-26T07:57:42.319Z,36.23
2022-08-26T08:00:16.457Z,36.06
2022-08-26T08:02:49.792Z,35.72
2022-08-26T08:05:22.801Z,35.39
2022-08-26T08:08:19.684Z,35.32
2022-08-26T08:10:57.391Z,35.50
2022-08-26T08:13:26.399Z,35.91
2022-08-26T08:15:58.236Z,36.13
2022-08-26T08:18:28.984Z,35.50
2022-08-26T08:21:10.821Z,34.89
2022-08-26T08:23:47.667Z,34.95
2022-08-26T08:26:16.973Z,34.17
2022-08-26T08:29:04.549Z,33.64
2022-08-26T08:34:28.920Z,33.19
2022-08-26T08:37:10.180Z,32.98
2022-08-26T08:39:43.727Z,32.02
2022-08-26T08:42:33.704Z,32.07
2022-08-26T08:45:35.943Z,31.02
2022-08-26T08:48:16.765Z,30.80
2022-08-26T08:51:06.291Z,31.42
2022-08-26T08:53:43.163Z,30.81
2022-08-26T08:56:32.516Z,30.61
2022-08-26T08:59:41.604Z,29.52
2022-08-26T09:02:47.952Z,29.33
2022-08-26T09:05:24.877Z,29.02
2022-08-26T09:08:11.235Z,28.27
2022-08-26T09:10:59.246Z,27.75
2022-08-26T09:13:32.550Z,28.07
2022-08-26T09:16:15.908Z,28.25
2022-08-26T09:19:18.873Z,27.23
2022-08-26T09:21:58.425Z,26.83
2022-08-26T09:24:38.354Z,27.38
2022-08-26T09:27:11.625Z,27.35
2022-08-26T09:29:45.596Z,26.76
2022-08-26T09:32:25.460Z,26.22
2022-08-26T09:35:04.593Z,26.25
2022-08-26T09:37:59.726Z,25.41
2022-08-26T09:40:41.779Z,25.10
2022-08-26T09:43:22.614Z,25.67
2022-08-26T09:46:15.341Z,25.63
2022-08-26T09:48:44.590Z,25.60
2022-08-26T09:51:26.706Z,25.89
2022-08-26T09:54:00.483Z,25.59
2022-08-26T09:56:32.832Z,26.02
2022-08-26T09:59:04.569Z,26.30
2022-08-26T10:01:45.286Z,26.33
2022-08-26T10:04:23.162Z,26.20
2022-08-26T10:07:08.389Z,26.68
2022-08-26T10:09:43.480Z,26.45
2022-08-26T10:12:20.193Z,26.90
2022-08-26T10:15:10.068Z,26.91
2022-08-26T10:18:05.265Z,27.22
2022-08-26T10:20:49.397Z,27.45
2022-08-26T10:23:25.053Z,27.08
2022-08-26T10:26:14.100Z,27.00
2022-08-26T10:28:57.145Z,27.47
2022-08-26T10:31:40.875Z,26.94
2022-08-26T10:34:13.890Z,26.74
2022-08-26T10:37:20.586Z,26.98
2022-08-26T10:39:59.308Z,26.66
2022-08-26T10:42:50.489Z,26.84
2022-08-26T10:45:25.899Z,27.00
2022-08-26T10:48:16.851Z,26.86
2022-08-26T10:50:53.232Z,26.83
2022-08-26T10:54:07.151Z,26.79
2022-08-26T10:57:36.294Z,26.74
2022-08-26T11:00:59.495Z,26.71
2022-08-26T11:03:36.302Z,26.95
2022-08-26T11:06:39.456Z,26.89
2022-08-26T11:09:11.185Z,27.13
2022-08-26T11:11:40.172Z,27.25
2022-08-26T11:14:29.086Z,27.56
2022-08-26T11:17:11.963Z,27.66
2022-08-26T11:20:27.983Z,27.77
2022-08-26T11:23:23.219Z,28.41
2022-08-26T11:26:01.891Z,29.16
2022-08-26T11:28:44.089Z,29.21
2022-08-26T11:31:19.229Z,29.32
2022-08-26T11:33:59.522Z,29.38
2022-08-26T11:36:57.677Z,29.52
2022-08-26T11:39:55.411Z,29.31
2022-08-26T11:42:46.894Z,29.22
2022-08-26T11:45:22.437Z,29.36
2022-08-26T11:47:54.836Z,29.79
2022-08-26T11:50:28.849Z,29.98
2022-08-26T11:53:06.103Z,29.80
2022-08-26T11:55:43.683Z,29.48
2022-08-26T11:58:15.401Z,29.12
2022-08-26T12:00:46.603Z,29.03
2022-08-26T12:03:31.859Z,29.19
2022-08-26T12:06:01.079Z,28.54
2022-08-26T12:08:33.978Z,27.90
2022-08-26T12:11:31.247Z,27.86
2022-08-26T12:14:18.219Z,27.61
2022-08-26T12:16:48.336Z,27.12
2022-08-26T12:19:33.269Z,26.96
2022-08-26T12:22:04.079Z,27.70
2022-08-26T12:24:33.594Z,28.24
2022-08-26T12:27:25.477Z,28.03
2022-08-26T12:30:26.194Z,28.04
2022-08-26T12:33:22.752Z,27.70
2022-08-26T12:35:56.564Z,27.31
2022-08-26T12:38:27.710Z,27.43
2022-08-26T12:40:57.377Z,27.24
2022-08-26T12:43:45.498Z,26.94
2022-08-26T12:46:30.077Z,26.99
2022-08-26T12:49:03.610Z,27.07
2022-08-26T12:51:35.439Z,26.82
2022-08-26T12:54:07.029Z,25.77
2022-08-26T12:56:39.654Z,25.53
2022-08-26T12:59:26.176Z,25.84
2022-08-26T13:01:55.323Z,25.56
2022-08-26T13:04:42.202Z,25.74
2022-08-26T13:07:26.636Z,25.34
2022-08-26T13:09:58.204Z,25.46
2022-08-26T13:12:32.800Z,25.81
2022-08-26T13:15:03.819Z,26.02
2022-08-26T13:17:34.424Z,25.26
2022-08-26T13:20:04.541Z,25.12
2022-08-26T13:22:37.408Z,25.04
2022-08-26T13:25:09.462Z,25.26
2022-08-26T13:27:38.336Z,25.22
2022-08-26T13:30:08.078Z,25.61
2022-08-26T13:32:37.098Z,24.91
2022-08-26T13:35:07.321Z,24.48
2022-08-26T13:37:36.915Z,24.80
2022-08-26T13:40:07.822Z,25.11
2022-08-26T13:42:37.089Z,25.27
2022-08-26T13:45:19.103Z,25.71
2022-08-26T13:47:48.511Z,25.83
2022-08-26T13:50:17.671Z,25.64
2022-08-26T13:52:48.455Z,25.20
2022-08-26T13:55:17.992Z,25.15
2022-08-26T13:58:07.327Z,25.26
2022-08-26T14:00:39.756Z,25.32
2022-08-26T14:03:13.238Z,25.50
2022-08-26T14:05:44.579Z,25.21
2022-08-26T14:08:14.616Z,25.17
2022-08-26T14:10:44.723Z,25.05
2022-08-26T14:13:25.780Z,25.00
2022-08-26T14:15:59.445Z,25.01
2022-08-26T14:18:41.080Z,25.24
2022-08-26T14:21:14.794Z,25.24
2022-08-26T14:23:49.435Z,25.06
2022-08-26T14:26:29.352Z,25.03
2022-08-26T14:29:00.968Z,24.83
2022-08-26T14:31:35.701Z,24.78
2022-08-26T14:34:09.830Z,25.03
2022-08-26T14:36:41.705Z,25.33
2022-08-26T14:39:14.225Z,25.43
2022-08-26T14:41:55.035Z,25.24
2022-08-26T14:44:32.266Z,25.43
2022-08-26T14:47:04.651Z,25.64
2022-08-26T14:49:36.954Z,25.86
2022-08-26T14:52:06.239Z,25.77
2022-08-26T14:54:35.759Z,25.74
2022-08-26T14:57:15.126Z,25.60
2022-08-26T14:59:49.692Z,25.60
2022-08-26T15:02:32.519Z,25.33
2022-08-26T15:05:11.294Z,25.15
2022-08-26T15:07:42.366Z,25.12
2022-08-26T15:10:16.592Z,25.15
2022-08-26T15:12:46.291Z,25.32
2022-08-26T15:15:18.864Z,25.29
2022-08-26T15:17:48.014Z,25.25
2022-08-26T15:20:18.902Z,25.53
2022-08-26T15:22:51.279Z,25.62
2022-08-26T15:25:22.814Z,26.15
2022-08-26T15:27:53.141Z,26.30
2022-08-26T15:30:22.402Z,26.21
2022-08-26T15:32:51.746Z,26.16
2022-08-26T15:35:21.314Z,26.28
2022-08-26T15:40:22.091Z,26.18
2022-08-26T15:42:57.593Z,26.26
2022-08-26T15:45:39.396Z,26.22
2022-08-26T15:48:14.458Z,26.27
2022-08-26T15:51:01.119Z,26.17
2022-08-26T15:53:37.260Z,26.38
2022-08-26T15:56:21.777Z,26.44
2022-08-26T15:59:12.800Z,26.49
2022-08-26T16:01:44.267Z,26.74
2022-08-26T16:04:18.299Z,26.80
2022-08-26T16:06:52.610Z,26.93
2022-08-26T16:09:31.119Z,27.23
2022-08-26T16:12:06.630Z,27.53
2022-08-26T16:14:36.084Z,27.52
2022-08-26T16:17:11.183Z,27.43
2022-08-26T16:19:41.461Z,27.51
2022-08-26T16:22:24.701Z,27.34
2022-08-26T16:25:04.342Z,27.22
2022-08-26T16:28:06.110Z,27.44
2022-08-26T16:30:47.491Z,27.63
2022-08-26T16:33:32.145Z,28.09
2022-08-26T16:36:12.049Z,27.97
2022-08-26T16:38:54.730Z,28.25
2022-08-26T16:42:07.494Z,28.48
2022-08-26T16:44:54.490Z,28.69
2022-08-26T16:47:32.199Z,29.05
2022-08-26T16:50:04.997Z,29.12
2022-08-26T16:52:41.328Z,29.41
2022-08-26T16:55:24.963Z,29.56
2022-08-26T16:58:11.910Z,29.94
2022-08-26T17:01:00.261Z,30.21
2022-08-26T17:03:45.501Z,30.45
2022-08-26T17:06:20.339Z,30.95
2022-08-26T17:08:50.070Z,31.06
2022-08-26T17:11:19.997Z,31.28
2022-08-26T17:13:54.619Z,31.48
2022-08-26T17:16:31.017Z,31.32
2022-08-26T17:19:07.219Z,31.62
2022-08-26T17:21:37.052Z,31.68
2022-08-26T17:24:50.275Z,31.73
2022-08-26T17:27:27.290Z,32.00
2022-08-26T17:30:07.010Z,32.72
2022-08-26T17:32:36.718Z,33.04
2022-08-26T17:35:14.700Z,33.69
2022-08-26T17:37:44.910Z,33.74
2022-08-26T17:40:24.348Z,33.40
2022-08-26T17:42:59.385Z,33.54
2022-08-26T17:45:28.775Z,33.93
2022-08-26T17:48:08.238Z,34.11
2022-08-26T17:50:45.541Z,34.27
2022-08-26T17:53:24.157Z,34.63
2022-08-26T17:56:02.573Z,34.83
2022-08-26T17:58:40.439Z,35.02
2022-08-26T18:01:14.757Z,35.48
2022-08-26T18:03:46.252Z,35.45
2022-08-26T18:06:16.032Z,35.61
2022-08-26T18:08:51.495Z,35.92
2022-08-26T18:11:25.773Z,35.96
2022-08-26T18:13:56.828Z,36.08
2022-08-26T18:16:34.452Z,36.45
2022-08-26T18:19:31.259Z,36.71
2022-08-26T18:22:01.396Z,36.77
2022-08-26T18:24:32.624Z,37.06
2022-08-26T18:27:03.863Z,37.82
2022-08-26T18:29:33.770Z,38.38
2022-08-26T18:32:03.785Z,38.59
2022-08-26T18:34:37.291Z,39.05
2022-08-26T18:37:14.351Z,39.40
2022-08-26T18:39:42.280Z,39.54
2022-08-26T18:42:14.645Z,39.71
2022-08-26T18:44:51.627Z,39.91
2022-08-26T18:47:21.188Z,40.37
2022-08-26T18:49:51.046Z,40.63
2022-08-26T18:52:27.454Z,40.90
2022-08-26T18:54:56.890Z,41.11
2022-08-26T18:57:26.079Z,41.47
2022-08-26T18:59:55.784Z,41.65
2022-08-26T19:02:25.064Z,41.62
2022-08-26T19:04:54.895Z,41.80
2022-08-26T19:07:24.026Z,42.04
2022-08-26T19:09:53.885Z,42.05
2022-08-26T19:12:23.445Z,42.40
2022-08-26T19:15:07.256Z,42.49
2022-08-26T19:17:42.218Z,42.77
2022-08-26T19:20:13.890Z,43.14
2022-08-26T19:22:43.395Z,43.55
2022-08-26T19:25:13.546Z,43.68
2022-08-26T19:27:43.568Z,43.59
2022-08-26T19:30:15.715Z,43.85
2022-08-26T19:32:50.198Z,44.03
2022-08-26T19:35:19.563Z,44.30
2022-08-26T19:37:51.730Z,44.51
2022-08-26T19:40:25.469Z,44.56
2022-08-26T19:43:23.905Z,44.11
2022-08-26T19:46:00.256Z,44.33
2022-08-26T19:48:29.940Z,45.15
2022-08-26T19:50:59.537Z,45.63
2022-08-26T19:53:31.913Z,46.18
2022-08-26T19:56:03.587Z,46.29
2022-08-26T19:58:34.654Z,46.90
2022-08-26T20:01:06.735Z,47.21
2022-08-26T20:03:39.637Z,47.11
2022-08-26T20:06:12.867Z,47.75
2022-08-26T20:08:43.725Z,47.45
2022-08-26T20:11:23.655Z,47.19
2022-08-26T20:13:53.608Z,46.96
2022-08-26T20:16:25.447Z,47.41
2022-08-26T20:19:17.085Z,47.53
2022-08-26T20:21:53.574Z,46.86
2022-08-26T20:24:26.704Z,47.03
2022-08-26T20:27:07.979Z,47.21
2022-08-26T20:29:45.458Z,46.63
2022-08-26T20:32:15.634Z,46.37
2022-08-26T20:34:44.765Z,46.55
2022-08-26T20:37:14.017Z,46.44
2022-08-26T20:39:43.549Z,46.42
2022-08-26T20:42:19.883Z,46.52
2022-08-26T20:44:54.742Z,46.91
2022-08-26T20:47:24.789Z,47.12
2022-08-26T20:49:53.815Z,47.58
2022-08-26T20:52:22.996Z,48.66
2022-08-26T20:54:52.225Z,48.20
2022-08-26T20:57:22.560Z,48.15
2022-08-26T20:59:51.744Z,48.36
2022-08-26T21:02:20.935Z,48.86
2022-08-26T21:04:50.216Z,49.11
2022-08-26T21:07:20.962Z,48.65
2022-08-26T21:09:51.682Z,49.00
2022-08-26T21:12:20.926Z,49.34
2022-08-26T21:14:50.264Z,49.66
2022-08-26T21:17:19.606Z,49.85
2022-08-26T21:19:48.787Z,50.12
2022-08-26T21:22:17.781Z,49.98
2022-08-26T21:24:47.164Z,49.50
2022-08-26T21:27:23.044Z,50.18
2022-08-26T21:29:56.347Z,50.27
2022-08-26T21:32:27.431Z,50.45
2022-08-26T21:35:01.783Z,50.53
2022-08-26T21:37:30.994Z,50.48
2022-08-26T21:40:02.176Z,50.83
2022-08-26T21:42:34.460Z,50.70
2022-08-26T21:45:04.083Z,50.97
2022-08-26T21:47:33.140Z,51.30
2022-08-26T21:50:02.641Z,51.46
2022-08-26T21:52:34.879Z,51.39
2022-08-26T21:55:08.799Z,51.68
2022-08-26T21:57:38.448Z,51.68
2022-08-26T22:00:10.202Z,51.43
2022-08-26T22:02:39.251Z,51.61
2022-08-26T22:05:08.686Z,52.10
2022-08-26T22:07:38.693Z,51.46
2022-08-26T22:10:09.211Z,51.25
2022-08-26T22:12:41.413Z,51.68
2022-08-26T22:15:11.106Z,51.89
2022-08-26T22:17:40.523Z,52.18
2022-08-26T22:20:11.486Z,52.73
2022-08-26T22:22:45.916Z,52.82
2022-08-26T22:25:14.982Z,53.19
2022-08-26T22:27:44.080Z,54.52
2022-08-26T22:30:13.607Z,55.98
2022-08-26T22:32:45.046Z,56.31
2022-08-26T22:35:29.194Z,56.94
2022-08-26T22:38:00.002Z,57.66
2022-08-26T22:40:29.237Z,57.61
2022-08-26T22:43:00.285Z,58.00
2022-08-26T22:45:35.693Z,57.86
2022-08-26T22:48:06.822Z,58.06
2022-08-26T22:50:38.316Z,58.71
2022-08-26T22:53:11.246Z,59.03
2022-08-26T22:55:40.624Z,59.30
2022-08-26T22:58:12.018Z,59.85
2022-08-26T23:00:45.154Z,60.09
2022-08-26T23:03:17.061Z,60.22
2022-08-26T23:05:46.788Z,60.16
2022-08-26T23:08:20.416Z,60.79
2022-08-26T23:10:49.698Z,60.70
2022-08-26T23:13:19.914Z,60.51
2022-08-26T23:15:50.207Z,60.30
2022-08-26T23:18:19.985Z,59.84
2022-08-26T23:20:49.494Z,59.70
2022-08-26T23:23:18.977Z,59.92
2022-08-26T23:25:50.626Z,59.99
2022-08-26T23:28:21.030Z,59.67
2022-08-26T23:30:50.590Z,60.09
2022-08-26T23:33:20.512Z,60.58
2022-08-26T23:35:51.028Z,60.80
2022-08-26T23:38:20.106Z,61.02
2022-08-26T23:40:49.238Z,61.00
2022-08-26T23:43:18.424Z,61.03
2022-08-26T23:45:47.643Z,60.59
2022-08-26T23:48:16.867Z,60.87
2022-08-26T23:51:07.147Z,61.29
2022-08-26T23:53:36.334Z,61.21
2022-08-26T23:56:05.605Z,61.50
2022-08-26T23:58:35.097Z,61.15
